sensor_id;sensor_type;location;lat;lon;timestamp;temperature;humidity
63371;DHT22;72561;48.336;14.472;2023-09-18T00:00:47;25.60;55.70
63371;DHT22;72561;48.336;14.472;2023-09-18T00:04:10;25.60;55.60
63371;DHT22;72561;48.336;14.472;2023-09-18T00:07:31;25.60;55.50
63371;DHT22;72561;48.336;14.472;2023-09-18T00:10:53;25.60;55.50
63371;DHT22;72561;48.336;14.472;2023-09-18T00:14:15;25.60;55.50
63371;DHT22;72561;48.336;14.472;2023-09-18T00:19:45;25.60;55.20
63371;DHT22;72561;48.336;14.472;2023-09-18T00:23:06;25.50;55.40
63371;DHT22;72561;48.336;14.472;2023-09-18T00:26:27;25.50;55.30
63371;DHT22;72561;48.336;14.472;2023-09-18T00:29:48;25.50;55.20
63371;DHT22;72561;48.336;14.472;2023-09-18T00:33:09;25.50;55.20
63371;DHT22;72561;48.336;14.472;2023-09-18T00:36:31;25.50;55.10
63371;DHT22;72561;48.336;14.472;2023-09-18T00:41:14;25.50;54.80
63371;DHT22;72561;48.336;14.472;2023-09-18T00:44:35;25.50;55.00
63371;DHT22;72561;48.336;14.472;2023-09-18T00:51:38;25.50;54.80
63371;DHT22;72561;48.336;14.472;2023-09-18T00:55:24;25.40;54.40
63371;DHT22;72561;48.336;14.472;2023-09-18T01:01:46;25.40;54.50
63371;DHT22;72561;48.336;14.472;2023-09-18T01:05:09;25.40;54.80
63371;DHT22;72561;48.336;14.472;2023-09-18T01:08:30;25.40;54.80
63371;DHT22;72561;48.336;14.472;2023-09-18T01:11:59;25.40;54.70
63371;DHT22;72561;48.336;14.472;2023-09-18T01:17:10;25.40;54.40
63371;DHT22;72561;48.336;14.472;2023-09-18T01:20:33;25.40;54.60
63371;DHT22;72561;48.336;14.472;2023-09-18T01:23:55;25.30;54.50
63371;DHT22;72561;48.336;14.472;2023-09-18T01:27:18;25.40;54.50
63371;DHT22;72561;48.336;14.472;2023-09-18T01:30:39;25.30;54.30
63371;DHT22;72561;48.336;14.472;2023-09-18T01:34:00;25.30;54.30
63371;DHT22;72561;48.336;14.472;2023-09-18T01:37:24;25.30;54.30
63371;DHT22;72561;48.336;14.472;2023-09-18T01:40:49;25.30;54.30
63371;DHT22;72561;48.336;14.472;2023-09-18T01:44:10;25.30;54.20
63371;DHT22;72561;48.336;14.472;2023-09-18T01:47:31;25.30;54.20
63371;DHT22;72561;48.336;14.472;2023-09-18T01:50:52;25.30;54.10
63371;DHT22;72561;48.336;14.472;2023-09-18T01:54:13;25.30;54.10
63371;DHT22;72561;48.336;14.472;2023-09-18T02:01:24;25.30;53.80
63371;DHT22;72561;48.336;14.472;2023-09-18T02:04:45;25.30;54.10
63371;DHT22;72561;48.336;14.472;2023-09-18T02:08:06;25.20;53.90
63371;DHT22;72561;48.336;14.472;2023-09-18T02:11:27;25.20;53.80
63371;DHT22;72561;48.336;14.472;2023-09-18T02:14:48;25.20;53.80
63371;DHT22;72561;48.336;14.472;2023-09-18T02:18:10;25.20;53.80
63371;DHT22;72561;48.336;14.472;2023-09-18T02:22:41;25.20;53.40
63371;DHT22;72561;48.336;14.472;2023-09-18T02:28:33;25.20;53.50
63371;DHT22;72561;48.336;14.472;2023-09-18T02:31:54;25.20;53.70
63371;DHT22;72561;48.336;14.472;2023-09-18T02:37:49;25.20;53.40
63371;DHT22;72561;48.336;14.472;2023-09-18T02:41:10;25.20;53.60
63371;DHT22;72561;48.336;14.472;2023-09-18T02:44:31;25.10;53.50
63371;DHT22;72561;48.336;14.472;2023-09-18T02:47:52;25.20;53.50
63371;DHT22;72561;48.336;14.472;2023-09-18T02:52:11;25.20;53.10
63371;DHT22;72561;48.336;14.472;2023-09-18T02:55:32;25.10;53.40
63371;DHT22;72561;48.336;14.472;2023-09-18T02:58:53;25.10;53.40
63371;DHT22;72561;48.336;14.472;2023-09-18T03:02:14;25.10;53.30
63371;DHT22;72561;48.336;14.472;2023-09-18T03:05:35;25.10;53.30
63371;DHT22;72561;48.336;14.472;2023-09-18T03:08:57;25.10;53.30
63371;DHT22;72561;48.336;14.472;2023-09-18T03:12:18;25.10;53.20
63371;DHT22;72561;48.336;14.472;2023-09-18T03:15:39;25.10;53.20
63371;DHT22;72561;48.336;14.472;2023-09-18T03:19:00;25.10;53.20
63371;DHT22;72561;48.336;14.472;2023-09-18T03:22:21;25.10;53.10
63371;DHT22;72561;48.336;14.472;2023-09-18T03:31:22;25.10;52.80
63371;DHT22;72561;48.336;14.472;2023-09-18T03:34:43;25.10;53.00
63371;DHT22;72561;48.336;14.472;2023-09-18T03:38:04;25.00;52.80
63371;DHT22;72561;48.336;14.472;2023-09-18T03:41:25;25.10;52.90
63371;DHT22;72561;48.336;14.472;2023-09-18T03:44:46;25.00;52.80
63371;DHT22;72561;48.336;14.472;2023-09-18T03:48:08;25.00;52.70
63371;DHT22;72561;48.336;14.472;2023-09-18T03:51:29;25.00;52.70
63371;DHT22;72561;48.336;14.472;2023-09-18T03:54:50;25.00;52.90
63371;DHT22;72561;48.336;14.472;2023-09-18T03:59:43;25.10;52.60
63371;DHT22;72561;48.336;14.472;2023-09-18T04:03:04;25.00;52.80
63371;DHT22;72561;48.336;14.472;2023-09-18T04:06:25;25.00;52.90
63371;DHT22;72561;48.336;14.472;2023-09-18T04:09:46;25.00;52.80
63371;DHT22;72561;48.336;14.472;2023-09-18T04:13:07;25.00;52.80
63371;DHT22;72561;48.336;14.472;2023-09-18T04:16:29;25.00;52.70
63371;DHT22;72561;48.336;14.472;2023-09-18T04:19:50;25.00;52.80
63371;DHT22;72561;48.336;14.472;2023-09-18T04:23:20;25.00;52.70
63371;DHT22;72561;48.336;14.472;2023-09-18T04:26:42;25.10;52.90
63371;DHT22;72561;48.336;14.472;2023-09-18T04:30:03;25.00;52.80
63371;DHT22;72561;48.336;14.472;2023-09-18T04:33:26;25.10;52.80
63371;DHT22;72561;48.336;14.472;2023-09-18T04:36:47;25.10;52.80
63371;DHT22;72561;48.336;14.472;2023-09-18T04:40:09;25.10;52.60
63371;DHT22;72561;48.336;14.472;2023-09-18T04:43:30;25.10;52.40
63371;DHT22;72561;48.336;14.472;2023-09-18T04:46:51;25.10;52.80
63371;DHT22;72561;48.336;14.472;2023-09-18T04:50:13;25.10;52.50
63371;DHT22;72561;48.336;14.472;2023-09-18T04:53:35;25.00;52.40
63371;DHT22;72561;48.336;14.472;2023-09-18T04:56:55;25.00;52.30
63371;DHT22;72561;48.336;14.472;2023-09-18T05:00:17;24.90;52.10
63371;DHT22;72561;48.336;14.472;2023-09-18T05:03:38;24.90;52.10
63371;DHT22;72561;48.336;14.472;2023-09-18T05:07:01;24.90;52.00
63371;DHT22;72561;48.336;14.472;2023-09-18T05:10:22;24.90;52.00
63371;DHT22;72561;48.336;14.472;2023-09-18T05:13:43;24.90;52.00
63371;DHT22;72561;48.336;14.472;2023-09-18T05:17:04;24.90;51.90
63371;DHT22;72561;48.336;14.472;2023-09-18T05:20:26;24.90;51.90
63371;DHT22;72561;48.336;14.472;2023-09-18T05:23:51;24.90;51.90
63371;DHT22;72561;48.336;14.472;2023-09-18T05:27:11;24.90;51.90
63371;DHT22;72561;48.336;14.472;2023-09-18T05:30:34;24.90;51.90
63371;DHT22;72561;48.336;14.472;2023-09-18T05:33:56;24.90;51.80
63371;DHT22;72561;48.336;14.472;2023-09-18T05:37:16;24.90;51.90
63371;DHT22;72561;48.336;14.472;2023-09-18T05:40:39;24.80;51.80
63371;DHT22;72561;48.336;14.472;2023-09-18T05:44:00;24.90;51.80
63371;DHT22;72561;48.336;14.472;2023-09-18T05:47:21;24.90;51.90
63371;DHT22;72561;48.336;14.472;2023-09-18T05:50:42;24.90;51.90
63371;DHT22;72561;48.336;14.472;2023-09-18T05:54:04;24.90;51.90
63371;DHT22;72561;48.336;14.472;2023-09-18T05:57:27;24.90;51.90
63371;DHT22;72561;48.336;14.472;2023-09-18T06:00:48;24.90;51.90
63371;DHT22;72561;48.336;14.472;2023-09-18T06:04:09;24.90;51.90
63371;DHT22;72561;48.336;14.472;2023-09-18T06:07:30;24.90;52.00
63371;DHT22;72561;48.336;14.472;2023-09-18T06:10:51;24.90;52.00
63371;DHT22;72561;48.336;14.472;2023-09-18T06:14:13;24.90;52.00
63371;DHT22;72561;48.336;14.472;2023-09-18T06:17:34;24.90;52.10
63371;DHT22;72561;48.336;14.472;2023-09-18T06:20:55;24.80;52.70
63371;DHT22;72561;48.336;14.472;2023-09-18T06:24:16;24.80;52.00
63371;DHT22;72561;48.336;14.472;2023-09-18T06:27:37;24.80;52.00
63371;DHT22;72561;48.336;14.472;2023-09-18T06:31:00;24.80;52.10
63371;DHT22;72561;48.336;14.472;2023-09-18T06:34:21;24.80;52.10
63371;DHT22;72561;48.336;14.472;2023-09-18T06:37:42;24.80;52.20
63371;DHT22;72561;48.336;14.472;2023-09-18T06:41:03;24.90;52.30
63371;DHT22;72561;48.336;14.472;2023-09-18T06:44:24;24.90;52.40
63371;DHT22;72561;48.336;14.472;2023-09-18T06:47:46;24.90;52.50
63371;DHT22;72561;48.336;14.472;2023-09-18T06:51:07;24.90;52.50
63371;DHT22;72561;48.336;14.472;2023-09-18T06:54:28;24.90;52.60
63371;DHT22;72561;48.336;14.472;2023-09-18T06:57:49;24.90;52.60
63371;DHT22;72561;48.336;14.472;2023-09-18T07:01:10;24.90;52.60
63371;DHT22;72561;48.336;14.472;2023-09-18T07:04:33;24.80;52.60
63371;DHT22;72561;48.336;14.472;2023-09-18T07:07:54;24.90;52.70
63371;DHT22;72561;48.336;14.472;2023-09-18T07:11:15;24.90;52.90
63371;DHT22;72561;48.336;14.472;2023-09-18T07:14:36;24.90;53.00
63371;DHT22;72561;48.336;14.472;2023-09-18T07:17:57;24.90;53.10
63371;DHT22;72561;48.336;14.472;2023-09-18T07:21:20;24.90;53.10
63371;DHT22;72561;48.336;14.472;2023-09-18T07:24:41;25.00;53.30
63371;DHT22;72561;48.336;14.472;2023-09-18T07:28:02;25.00;53.40
63371;DHT22;72561;48.336;14.472;2023-09-18T07:31:23;25.00;53.50
63371;DHT22;72561;48.336;14.472;2023-09-18T07:34:44;25.00;53.50
63371;DHT22;72561;48.336;14.472;2023-09-18T07:38:07;25.10;53.70
63371;DHT22;72561;48.336;14.472;2023-09-18T07:41:28;25.10;53.80
63371;DHT22;72561;48.336;14.472;2023-09-18T07:44:49;25.10;53.80
63371;DHT22;72561;48.336;14.472;2023-09-18T07:48:10;25.10;53.80
63371;DHT22;72561;48.336;14.472;2023-09-18T07:51:31;25.10;54.00
63371;DHT22;72561;48.336;14.472;2023-09-18T07:54:53;25.10;53.90
63371;DHT22;72561;48.336;14.472;2023-09-18T07:58:14;25.20;54.00
63371;DHT22;72561;48.336;14.472;2023-09-18T08:01:35;25.10;54.00
63371;DHT22;72561;48.336;14.472;2023-09-18T08:04:56;25.20;54.10
63371;DHT22;72561;48.336;14.472;2023-09-18T08:08:18;25.20;54.10
63371;DHT22;72561;48.336;14.472;2023-09-18T08:11:41;25.20;54.20
63371;DHT22;72561;48.336;14.472;2023-09-18T08:15:02;25.20;54.00
63371;DHT22;72561;48.336;14.472;2023-09-18T08:18:24;25.20;54.20
63371;DHT22;72561;48.336;14.472;2023-09-18T08:21:45;25.20;54.40
63371;DHT22;72561;48.336;14.472;2023-09-18T08:25:07;25.20;54.60
63371;DHT22;72561;48.336;14.472;2023-09-18T08:28:29;25.20;54.80
63371;DHT22;72561;48.336;14.472;2023-09-18T08:31:50;25.30;55.10
63371;DHT22;72561;48.336;14.472;2023-09-18T08:35:11;25.30;55.20
63371;DHT22;72561;48.336;14.472;2023-09-18T08:38:32;25.30;55.40
63371;DHT22;72561;48.336;14.472;2023-09-18T08:41:57;25.30;55.50
63371;DHT22;72561;48.336;14.472;2023-09-18T08:45:23;25.30;55.60
63371;DHT22;72561;48.336;14.472;2023-09-18T08:48:48;25.40;55.80
63371;DHT22;72561;48.336;14.472;2023-09-18T08:52:11;25.40;56.00
63371;DHT22;72561;48.336;14.472;2023-09-18T08:55:35;25.50;56.20
63371;DHT22;72561;48.336;14.472;2023-09-18T08:58:56;25.50;56.30
63371;DHT22;72561;48.336;14.472;2023-09-18T09:02:18;25.50;56.20
63371;DHT22;72561;48.336;14.472;2023-09-18T09:05:39;25.60;56.40
63371;DHT22;72561;48.336;14.472;2023-09-18T09:09:00;25.60;56.40
63371;DHT22;72561;48.336;14.472;2023-09-18T09:12:53;25.70;56.60
63371;DHT22;72561;48.336;14.472;2023-09-18T09:16:17;25.70;56.60
63371;DHT22;72561;48.336;14.472;2023-09-18T09:19:40;25.80;56.90
63371;DHT22;72561;48.336;14.472;2023-09-18T09:23:02;25.80;56.90
63371;DHT22;72561;48.336;14.472;2023-09-18T09:26:23;25.80;56.50
63371;DHT22;72561;48.336;14.472;2023-09-18T09:29:58;25.90;56.30
63371;DHT22;72561;48.336;14.472;2023-09-18T09:33:19;26.00;56.20
63371;DHT22;72561;48.336;14.472;2023-09-18T09:36:55;26.00;56.30
63371;DHT22;72561;48.336;14.472;2023-09-18T09:40:19;26.00;56.20
63371;DHT22;72561;48.336;14.472;2023-09-18T09:43:42;26.10;56.40
63371;DHT22;72561;48.336;14.472;2023-09-18T09:47:06;26.10;56.30
63371;DHT22;72561;48.336;14.472;2023-09-18T09:50:27;26.10;56.30
63371;DHT22;72561;48.336;14.472;2023-09-18T09:53:49;26.20;56.40
63371;DHT22;72561;48.336;14.472;2023-09-18T09:57:10;26.20;56.40
63371;DHT22;72561;48.336;14.472;2023-09-18T10:00:33;26.30;56.50
63371;DHT22;72561;48.336;14.472;2023-09-18T10:03:55;26.30;56.50
63371;DHT22;72561;48.336;14.472;2023-09-18T10:07:17;26.30;56.50
63371;DHT22;72561;48.336;14.472;2023-09-18T10:10:46;26.40;56.40
63371;DHT22;72561;48.336;14.472;2023-09-18T10:14:12;26.40;57.10
63371;DHT22;72561;48.336;14.472;2023-09-18T10:17:37;26.50;56.50
63371;DHT22;72561;48.336;14.472;2023-09-18T10:21:10;26.50;56.50
63371;DHT22;72561;48.336;14.472;2023-09-18T10:24:37;26.50;56.40
63371;DHT22;72561;48.336;14.472;2023-09-18T10:28:02;26.50;56.40
63371;DHT22;72561;48.336;14.472;2023-09-18T10:31:23;26.60;56.40
63371;DHT22;72561;48.336;14.472;2023-09-18T10:37:43;26.60;55.70
63371;DHT22;72561;48.336;14.472;2023-09-18T10:41:05;26.60;56.40
63371;DHT22;72561;48.336;14.472;2023-09-18T10:44:28;26.60;56.40
63371;DHT22;72561;48.336;14.472;2023-09-18T10:47:50;26.60;56.50
63371;DHT22;72561;48.336;14.472;2023-09-18T10:51:11;26.60;56.40
63371;DHT22;72561;48.336;14.472;2023-09-18T10:54:34;26.60;56.50
63371;DHT22;72561;48.336;14.472;2023-09-18T10:57:56;26.60;56.50
63371;DHT22;72561;48.336;14.472;2023-09-18T11:01:18;26.70;56.60
63371;DHT22;72561;48.336;14.472;2023-09-18T11:04:41;26.70;56.60
63371;DHT22;72561;48.336;14.472;2023-09-18T11:08:25;26.70;56.70
63371;DHT22;72561;48.336;14.472;2023-09-18T11:11:53;26.70;56.60
63371;DHT22;72561;48.336;14.472;2023-09-18T11:15:26;26.70;56.70
63371;DHT22;72561;48.336;14.472;2023-09-18T11:18:53;26.70;56.70
63371;DHT22;72561;48.336;14.472;2023-09-18T11:22:15;26.70;56.80
63371;DHT22;72561;48.336;14.472;2023-09-18T11:25:36;26.70;56.90
63371;DHT22;72561;48.336;14.472;2023-09-18T11:29:05;26.70;56.80
63371;DHT22;72561;48.336;14.472;2023-09-18T11:32:39;26.70;56.90
63371;DHT22;72561;48.336;14.472;2023-09-18T11:36:04;26.80;56.90
63371;DHT22;72561;48.336;14.472;2023-09-18T11:39:34;26.70;57.00
63371;DHT22;72561;48.336;14.472;2023-09-18T11:43:19;26.80;57.20
63371;DHT22;72561;48.336;14.472;2023-09-18T11:46:47;26.80;57.30
63371;DHT22;72561;48.336;14.472;2023-09-18T11:50:10;26.80;57.50
63371;DHT22;72561;48.336;14.472;2023-09-18T11:53:34;26.80;57.60
63371;DHT22;72561;48.336;14.472;2023-09-18T11:56:58;26.80;57.90
63371;DHT22;72561;48.336;14.472;2023-09-18T12:00:23;26.90;58.00
63371;DHT22;72561;48.336;14.472;2023-09-18T12:03:45;26.90;58.10
63371;DHT22;72561;48.336;14.472;2023-09-18T12:07:07;26.90;58.10
63371;DHT22;72561;48.336;14.472;2023-09-18T12:10:29;27.00;58.10
63371;DHT22;72561;48.336;14.472;2023-09-18T12:13:51;27.00;58.20
63371;DHT22;72561;48.336;14.472;2023-09-18T12:17:14;27.00;58.30
63371;DHT22;72561;48.336;14.472;2023-09-18T12:20:37;27.10;59.00
63371;DHT22;72561;48.336;14.472;2023-09-18T12:23:58;27.10;58.60
63371;DHT22;72561;48.336;14.472;2023-09-18T12:27:19;27.10;58.60
63371;DHT22;72561;48.336;14.472;2023-09-18T12:30:40;27.20;58.70
63371;DHT22;72561;48.336;14.472;2023-09-18T12:34:01;27.20;58.70
63371;DHT22;72561;48.336;14.472;2023-09-18T12:37:25;27.20;58.70
63371;DHT22;72561;48.336;14.472;2023-09-18T12:40:46;27.30;58.70
63371;DHT22;72561;48.336;14.472;2023-09-18T12:44:09;27.30;58.70
63371;DHT22;72561;48.336;14.472;2023-09-18T12:47:31;27.30;58.70
63371;DHT22;72561;48.336;14.472;2023-09-18T12:50:53;27.30;58.70
63371;DHT22;72561;48.336;14.472;2023-09-18T12:54:16;27.40;58.80
63371;DHT22;72561;48.336;14.472;2023-09-18T12:57:41;27.40;58.70
63371;DHT22;72561;48.336;14.472;2023-09-18T13:01:12;27.40;58.60
63371;DHT22;72561;48.336;14.472;2023-09-18T13:04:37;27.50;58.60
63371;DHT22;72561;48.336;14.472;2023-09-18T13:08:02;27.50;58.60
63371;DHT22;72561;48.336;14.472;2023-09-18T13:11:26;27.50;58.50
63371;DHT22;72561;48.336;14.472;2023-09-18T13:15:00;27.50;58.50
63371;DHT22;72561;48.336;14.472;2023-09-18T13:18:21;27.50;58.40
63371;DHT22;72561;48.336;14.472;2023-09-18T13:21:47;27.50;58.30
63371;DHT22;72561;48.336;14.472;2023-09-18T13:25:08;27.50;58.30
63371;DHT22;72561;48.336;14.472;2023-09-18T13:28:32;27.50;58.30
63371;DHT22;72561;48.336;14.472;2023-09-18T13:31:53;27.50;58.30
63371;DHT22;72561;48.336;14.472;2023-09-18T13:35:14;27.40;58.20
63371;DHT22;72561;48.336;14.472;2023-09-18T13:38:37;27.40;58.30
63371;DHT22;72561;48.336;14.472;2023-09-18T13:41:58;27.40;58.30
63371;DHT22;72561;48.336;14.472;2023-09-18T13:45:21;27.40;58.30
63371;DHT22;72561;48.336;14.472;2023-09-18T13:48:42;27.40;58.30
63371;DHT22;72561;48.336;14.472;2023-09-18T13:52:03;27.40;58.30
63371;DHT22;72561;48.336;14.472;2023-09-18T13:55:25;27.40;58.30
63371;DHT22;72561;48.336;14.472;2023-09-18T13:58:46;27.40;58.30
63371;DHT22;72561;48.336;14.472;2023-09-18T14:02:09;27.40;58.30
63371;DHT22;72561;48.336;14.472;2023-09-18T14:05:30;27.30;58.20
63371;DHT22;72561;48.336;14.472;2023-09-18T14:08:51;27.30;58.30
63371;DHT22;72561;48.336;14.472;2023-09-18T14:12:12;27.30;58.30
63371;DHT22;72561;48.336;14.472;2023-09-18T14:15:33;27.30;58.30
63371;DHT22;72561;48.336;14.472;2023-09-18T14:18:56;27.30;58.40
63371;DHT22;72561;48.336;14.472;2023-09-18T14:22:17;27.30;58.40
63371;DHT22;72561;48.336;14.472;2023-09-18T14:25:38;27.20;58.30
63371;DHT22;72561;48.336;14.472;2023-09-18T14:28:59;27.30;58.50
63371;DHT22;72561;48.336;14.472;2023-09-18T14:32:20;27.20;58.40
63371;DHT22;72561;48.336;14.472;2023-09-18T14:35:42;27.20;58.40
63371;DHT22;72561;48.336;14.472;2023-09-18T14:39:04;27.20;58.50
63371;DHT22;72561;48.336;14.472;2023-09-18T14:42:25;27.20;58.50
63371;DHT22;72561;48.336;14.472;2023-09-18T14:45:46;27.10;58.40
63371;DHT22;72561;48.336;14.472;2023-09-18T14:49:07;27.10;58.40
63371;DHT22;72561;48.336;14.472;2023-09-18T14:52:30;27.10;58.50
63371;DHT22;72561;48.336;14.472;2023-09-18T14:55:51;27.10;58.50
63371;DHT22;72561;48.336;14.472;2023-09-18T14:59:12;27.10;58.50
63371;DHT22;72561;48.336;14.472;2023-09-18T15:02:33;27.00;58.40
63371;DHT22;72561;48.336;14.472;2023-09-18T15:05:54;27.00;58.50
63371;DHT22;72561;48.336;14.472;2023-09-18T15:09:16;27.00;58.40
63371;DHT22;72561;48.336;14.472;2023-09-18T15:12:37;27.00;58.50
63371;DHT22;72561;48.336;14.472;2023-09-18T15:15:58;27.00;58.60
63371;DHT22;72561;48.336;14.472;2023-09-18T15:19:19;27.00;58.70
63371;DHT22;72561;48.336;14.472;2023-09-18T15:22:40;26.90;58.90
63371;DHT22;72561;48.336;14.472;2023-09-18T15:26:03;27.00;58.70
63371;DHT22;72561;48.336;14.472;2023-09-18T15:29:24;26.90;58.70
63371;DHT22;72561;48.336;14.472;2023-09-18T15:32:49;26.90;58.70
63371;DHT22;72561;48.336;14.472;2023-09-18T15:36:10;27.00;58.80
63371;DHT22;72561;48.336;14.472;2023-09-18T15:39:32;26.90;58.80
63371;DHT22;72561;48.336;14.472;2023-09-18T15:42:54;26.90;58.80
63371;DHT22;72561;48.336;14.472;2023-09-18T15:46:15;26.90;58.90
63371;DHT22;72561;48.336;14.472;2023-09-18T15:49:36;26.90;58.90
63371;DHT22;72561;48.336;14.472;2023-09-18T15:52:57;26.90;59.00
63371;DHT22;72561;48.336;14.472;2023-09-18T15:56:31;26.90;59.40
63371;DHT22;72561;48.336;14.472;2023-09-18T15:59:54;26.90;59.50
63371;DHT22;72561;48.336;14.472;2023-09-18T16:03:15;26.90;59.50
63371;DHT22;72561;48.336;14.472;2023-09-18T16:06:36;26.90;59.40
63371;DHT22;72561;48.336;14.472;2023-09-18T16:12:51;26.80;58.60
63371;DHT22;72561;48.336;14.472;2023-09-18T16:16:12;26.80;59.20
63371;DHT22;72561;48.336;14.472;2023-09-18T16:19:33;26.80;59.40
63371;DHT22;72561;48.336;14.472;2023-09-18T16:22:54;26.80;59.40
63371;DHT22;72561;48.336;14.472;2023-09-18T16:26:15;26.80;59.40
63371;DHT22;72561;48.336;14.472;2023-09-18T16:29:38;26.90;59.60
63371;DHT22;72561;48.336;14.472;2023-09-18T16:32:59;26.90;59.50
63371;DHT22;72561;48.336;14.472;2023-09-18T16:36:20;26.90;59.50
63371;DHT22;72561;48.336;14.472;2023-09-18T16:39:41;26.90;59.50
63371;DHT22;72561;48.336;14.472;2023-09-18T16:43:02;26.90;59.50
63371;DHT22;72561;48.336;14.472;2023-09-18T16:46:24;26.90;59.40
63371;DHT22;72561;48.336;14.472;2023-09-18T16:49:45;26.80;59.40
63371;DHT22;72561;48.336;14.472;2023-09-18T16:53:06;26.90;59.40
63371;DHT22;72561;48.336;14.472;2023-09-18T16:56:28;26.80;59.40
63371;DHT22;72561;48.336;14.472;2023-09-18T16:59:49;26.80;59.40
63371;DHT22;72561;48.336;14.472;2023-09-18T17:03:11;26.80;59.40
63371;DHT22;72561;48.336;14.472;2023-09-18T17:06:32;26.80;59.50
63371;DHT22;72561;48.336;14.472;2023-09-18T17:11:26;26.80;58.80
63371;DHT22;72561;48.336;14.472;2023-09-18T17:14:47;26.80;59.60
63371;DHT22;72561;48.336;14.472;2023-09-18T17:18:08;26.80;59.60
63371;DHT22;72561;48.336;14.472;2023-09-18T17:21:29;26.70;59.70
63371;DHT22;72561;48.336;14.472;2023-09-18T17:24:50;26.80;60.00
63371;DHT22;72561;48.336;14.472;2023-09-18T17:28:12;26.70;60.00
63371;DHT22;72561;48.336;14.472;2023-09-18T17:31:34;26.70;60.00
63371;DHT22;72561;48.336;14.472;2023-09-18T17:34:55;26.80;60.10
63371;DHT22;72561;48.336;14.472;2023-09-18T17:38:16;26.80;60.00
63371;DHT22;72561;48.336;14.472;2023-09-18T17:41:37;26.80;60.10
63371;DHT22;72561;48.336;14.472;2023-09-18T17:44:59;26.90;60.10
63371;DHT22;72561;48.336;14.472;2023-09-18T17:48:23;26.90;60.10
63371;DHT22;72561;48.336;14.472;2023-09-18T17:51:45;26.90;60.10
63371;DHT22;72561;48.336;14.472;2023-09-18T18:00:09;26.90;59.40
63371;DHT22;72561;48.336;14.472;2023-09-18T18:03:30;26.90;60.10
63371;DHT22;72561;48.336;14.472;2023-09-18T18:06:51;26.90;60.10
63371;DHT22;72561;48.336;14.472;2023-09-18T18:10:12;26.90;60.20
63371;DHT22;72561;48.336;14.472;2023-09-18T18:13:33;26.90;60.20
63371;DHT22;72561;48.336;14.472;2023-09-18T18:16:56;26.90;60.20
63371;DHT22;72561;48.336;14.472;2023-09-18T18:20:17;26.90;60.30
63371;DHT22;72561;48.336;14.472;2023-09-18T18:24:30;26.90;59.60
63371;DHT22;72561;48.336;14.472;2023-09-18T18:27:51;26.90;60.30
63371;DHT22;72561;48.336;14.472;2023-09-18T18:31:13;26.90;60.50
63371;DHT22;72561;48.336;14.472;2023-09-18T18:34:35;26.90;60.40
63371;DHT22;72561;48.336;14.472;2023-09-18T18:37:56;26.90;60.40
63371;DHT22;72561;48.336;14.472;2023-09-18T18:41:18;26.90;60.40
63371;DHT22;72561;48.336;14.472;2023-09-18T18:44:39;26.80;60.40
63371;DHT22;72561;48.336;14.472;2023-09-18T18:48:00;26.80;60.40
63371;DHT22;72561;48.336;14.472;2023-09-18T18:51:21;26.80;60.50
63371;DHT22;72561;48.336;14.472;2023-09-18T18:54:42;26.80;60.40
63371;DHT22;72561;48.336;14.472;2023-09-18T18:58:05;26.90;60.60
63371;DHT22;72561;48.336;14.472;2023-09-18T19:01:26;26.80;60.50
63371;DHT22;72561;48.336;14.472;2023-09-18T19:04:47;26.80;60.60
63371;DHT22;72561;48.336;14.472;2023-09-18T19:08:08;26.80;60.60
63371;DHT22;72561;48.336;14.472;2023-09-18T19:11:29;26.80;60.60
63371;DHT22;72561;48.336;14.472;2023-09-18T19:14:51;26.80;60.60
63371;DHT22;72561;48.336;14.472;2023-09-18T19:18:12;26.80;60.70
63371;DHT22;72561;48.336;14.472;2023-09-18T19:21:33;26.80;60.70
63371;DHT22;72561;48.336;14.472;2023-09-18T19:24:55;26.80;60.70
63371;DHT22;72561;48.336;14.472;2023-09-18T19:28:18;26.80;60.60
63371;DHT22;72561;48.336;14.472;2023-09-18T19:31:42;26.80;60.70
63371;DHT22;72561;48.336;14.472;2023-09-18T19:35:06;26.80;60.40
63371;DHT22;72561;48.336;14.472;2023-09-18T19:38:28;26.80;60.30
63371;DHT22;72561;48.336;14.472;2023-09-18T19:41:49;26.80;60.40
63371;DHT22;72561;48.336;14.472;2023-09-18T19:45:10;26.80;60.10
63371;DHT22;72561;48.336;14.472;2023-09-18T19:48:32;26.80;60.10
63371;DHT22;72561;48.336;14.472;2023-09-18T19:51:53;26.80;60.00
63371;DHT22;72561;48.336;14.472;2023-09-18T19:55:15;26.70;59.90
63371;DHT22;72561;48.336;14.472;2023-09-18T19:58:36;26.70;59.90
63371;DHT22;72561;48.336;14.472;2023-09-18T20:01:58;26.70;59.70
63371;DHT22;72561;48.336;14.472;2023-09-18T20:05:21;26.60;59.60
63371;DHT22;72561;48.336;14.472;2023-09-18T20:08:42;26.60;59.60
63371;DHT22;72561;48.336;14.472;2023-09-18T20:12:04;26.60;60.10
63371;DHT22;72561;48.336;14.472;2023-09-18T20:15:26;26.60;59.50
63371;DHT22;72561;48.336;14.472;2023-09-18T20:18:47;26.50;59.40
63371;DHT22;72561;48.336;14.472;2023-09-18T20:22:09;26.50;59.20
63371;DHT22;72561;48.336;14.472;2023-09-18T20:25:30;26.50;59.20
63371;DHT22;72561;48.336;14.472;2023-09-18T20:28:51;26.50;59.10
63371;DHT22;72561;48.336;14.472;2023-09-18T20:32:12;26.40;59.00
63371;DHT22;72561;48.336;14.472;2023-09-18T20:35:33;26.50;59.00
63371;DHT22;72561;48.336;14.472;2023-09-18T20:38:56;26.40;59.00
63371;DHT22;72561;48.336;14.472;2023-09-18T20:42:17;26.40;58.90
63371;DHT22;72561;48.336;14.472;2023-09-18T20:45:38;26.40;58.90
63371;DHT22;72561;48.336;14.472;2023-09-18T20:48:59;26.30;58.80
63371;DHT22;72561;48.336;14.472;2023-09-18T20:52:20;26.30;58.80
63371;DHT22;72561;48.336;14.472;2023-09-18T20:55:43;26.30;58.80
63371;DHT22;72561;48.336;14.472;2023-09-18T20:59:04;26.30;58.90
63371;DHT22;72561;48.336;14.472;2023-09-18T21:02:25;26.20;58.90
63371;DHT22;72561;48.336;14.472;2023-09-18T21:05:51;26.30;58.90
63371;DHT22;72561;48.336;14.472;2023-09-18T21:09:12;26.30;58.80
63371;DHT22;72561;48.336;14.472;2023-09-18T21:12:35;26.20;58.80
63371;DHT22;72561;48.336;14.472;2023-09-18T21:15:56;26.20;58.70
63371;DHT22;72561;48.336;14.472;2023-09-18T21:19:17;26.20;58.70
63371;DHT22;72561;48.336;14.472;2023-09-18T21:22:38;26.10;58.60
63371;DHT22;72561;48.336;14.472;2023-09-18T21:25:59;26.10;58.60
63371;DHT22;72561;48.336;14.472;2023-09-18T21:29:22;26.20;58.70
63371;DHT22;72561;48.336;14.472;2023-09-18T21:34:56;26.10;58.10
63371;DHT22;72561;48.336;14.472;2023-09-18T21:38:17;26.10;58.70
63371;DHT22;72561;48.336;14.472;2023-09-18T21:41:38;26.10;58.60